createdAt,value
2018-08-25T00:00:53.802Z,4.30
2018-08-25T00:03:23.728Z,3.97
2018-08-25T00:05:52.968Z,4.10
2018-08-25T00:08:22.392Z,4.20
2018-08-25T00:10:52.278Z,3.67
2018-08-25T00:13:21.758Z,3.67
2018-08-25T00:15:51.242Z,4.57
2018-08-25T00:18:21.037Z,4.33
2018-08-25T00:20:50.581Z,4.40
2018-08-25T00:23:20.152Z,4.37
2018-08-25T00:25:50.184Z,3.90
2018-08-25T00:28:19.926Z,4.00
2018-08-25T00:30:54.634Z,4.20
2018-08-25T00:33:23.981Z,4.87
2018-08-25T00:35:53.238Z,4.90
2018-08-25T00:38:24.614Z,4.40
2018-08-25T00:40:53.976Z,4.63
2018-08-25T00:43:23.239Z,3.90
2018-08-25T00:45:52.558Z,5.07
2018-08-25T00:48:21.962Z,4.63
2018-08-25T00:50:51.276Z,5.80
2018-08-25T00:53:20.628Z,6.07
2018-08-25T00:55:51.136Z,6.30
2018-08-25T00:58:20.625Z,5.60
2018-08-25T01:00:50.335Z,5.20
2018-08-25T01:03:20.013Z,5.20
2018-08-25T01:05:49.470Z,5.80
2018-08-25T01:08:19.851Z,6.30
2018-08-25T01:10:49.356Z,4.97
2018-08-25T01:13:19.351Z,5.30
2018-08-25T01:15:49.131Z,5.17
2018-08-25T01:18:18.844Z,5.03
2018-08-25T01:20:48.753Z,6.10
2018-08-25T01:23:19.153Z,6.37
2018-08-25T01:25:48.823Z,6.17
2018-08-25T01:28:18.492Z,5.97
2018-08-25T01:30:48.235Z,5.87
2018-08-25T01:33:17.617Z,5.40
2018-08-25T01:35:47.218Z,5.30
2018-08-25T01:38:17.433Z,5.13
2018-08-25T01:40:46.850Z,6.30
2018-08-25T01:43:16.665Z,4.53
2018-08-25T01:45:46.748Z,6.17
2018-08-25T01:48:16.681Z,5.30
2018-08-25T01:50:46.565Z,5.57
2018-08-25T01:53:16.511Z,5.73
2018-08-25T01:55:46.085Z,5.80
2018-08-25T01:58:16.320Z,5.93
2018-08-25T02:00:45.761Z,5.20
2018-08-25T02:03:15.567Z,5.40
2018-08-25T02:05:45.233Z,5.43
2018-08-25T02:08:14.961Z,5.37
2018-08-25T02:10:44.592Z,5.10
2018-08-25T02:13:14.021Z,4.63
2018-08-25T02:15:43.374Z,4.40
2018-08-25T02:18:12.681Z,5.33
2018-08-25T02:20:42.012Z,4.43
2018-08-25T02:23:11.748Z,5.23
2018-08-25T02:25:41.320Z,5.40
2018-08-25T02:28:10.702Z,5.33
2018-08-25T02:30:39.990Z,4.87
2018-08-25T02:33:09.256Z,5.23
2018-08-25T02:35:38.552Z,7.20
2018-08-25T02:38:08.156Z,6.20
2018-08-25T02:40:38.646Z,6.03
2018-08-25T02:43:08.074Z,5.73
2018-08-25T02:45:37.605Z,5.50
2018-08-25T02:48:07.090Z,6.13
2018-08-25T02:50:36.430Z,5.20
2018-08-25T02:53:05.742Z,6.60
2018-08-25T02:55:35.341Z,5.43
2018-08-25T02:58:04.887Z,5.20
2018-08-25T03:00:34.278Z,5.40
2018-08-25T03:03:05.321Z,5.97
2018-08-25T03:05:34.609Z,5.30
2018-08-25T03:08:05.013Z,5.70
2018-08-25T03:10:34.268Z,5.07
2018-08-25T03:13:03.605Z,5.60
2018-08-25T03:15:32.995Z,4.80
2018-08-25T03:18:03.017Z,4.30
2018-08-25T03:20:32.330Z,5.53
2018-08-25T03:23:01.703Z,5.10
2018-08-25T03:25:31.056Z,4.80
2018-08-25T03:28:01.355Z,4.83
2018-08-25T03:30:30.655Z,5.90
2018-08-25T03:33:01.053Z,4.20
2018-08-25T03:35:30.433Z,4.83
2018-08-25T03:37:59.656Z,5.17
2018-08-25T03:40:28.987Z,4.17
2018-08-25T03:42:58.391Z,5.50
2018-08-25T03:45:27.637Z,4.20
2018-08-25T03:47:57.049Z,4.43
2018-08-25T03:50:26.573Z,4.20
2018-08-25T03:52:55.857Z,4.67
2018-08-25T03:55:25.871Z,3.77
2018-08-25T03:57:55.116Z,4.40
2018-08-25T04:00:24.478Z,4.67
2018-08-25T04:02:54.254Z,3.80
2018-08-25T04:05:23.608Z,5.13
2018-08-25T04:07:53.094Z,3.50
2018-08-25T04:10:22.638Z,4.77
2018-08-25T04:12:51.997Z,4.63
2018-08-25T04:15:21.346Z,4.10
2018-08-25T04:17:51.209Z,4.17
2018-08-25T04:20:20.722Z,3.67
2018-08-25T04:22:50.496Z,5.10
2018-08-25T04:25:20.021Z,3.37
2018-08-25T04:27:49.462Z,3.87
2018-08-25T04:30:18.906Z,4.30
2018-08-25T04:32:48.973Z,5.00
2018-08-25T04:35:18.654Z,4.43
2018-08-25T04:37:48.302Z,3.63
2018-08-25T04:40:18.165Z,3.70
2018-08-25T04:42:47.860Z,3.77
2018-08-25T04:45:18.017Z,3.57
2018-08-25T04:47:48.034Z,4.80
2018-08-25T04:50:17.560Z,4.20
2018-08-25T04:52:47.111Z,3.23
2018-08-25T04:55:16.477Z,3.50
2018-08-25T04:57:45.857Z,3.37
2018-08-25T05:00:15.161Z,3.33
2018-08-25T05:02:44.621Z,3.50
2018-08-25T05:05:13.969Z,3.33
2018-08-25T05:07:43.749Z,3.47
2018-08-25T05:10:13.179Z,3.47
2018-08-25T05:12:42.386Z,3.00
2018-08-25T05:15:11.713Z,3.30
2018-08-25T05:17:41.571Z,4.03
2018-08-25T05:20:10.830Z,3.03
2018-08-25T05:22:40.049Z,2.60
2018-08-25T05:25:11.029Z,2.90
2018-08-25T05:27:40.351Z,2.83
2018-08-25T05:30:09.750Z,3.57
2018-08-25T05:32:39.245Z,2.63
2018-08-25T05:35:08.531Z,2.40
2018-08-25T05:37:37.742Z,3.10
2018-08-25T05:40:08.654Z,3.00
2018-08-25T05:42:38.185Z,2.80
2018-08-25T05:45:07.461Z,2.60
2018-08-25T05:47:36.869Z,2.50
2018-08-25T05:50:06.081Z,2.03
2018-08-25T05:52:35.307Z,2.53
2018-08-25T05:55:04.701Z,3.20
2018-08-25T05:57:34.015Z,2.60
2018-08-25T06:00:03.321Z,2.90
2018-08-25T06:02:32.899Z,2.90
2018-08-25T06:05:02.094Z,3.80
2018-08-25T06:07:31.394Z,3.37
2018-08-25T06:10:01.212Z,3.03
2018-08-25T06:12:30.591Z,2.70
2018-08-25T06:15:00.325Z,2.63
2018-08-25T06:17:30.009Z,2.83
2018-08-25T06:19:59.254Z,2.87
2018-08-25T06:22:28.772Z,2.60
2018-08-25T06:24:58.240Z,3.53
2018-08-25T06:27:28.667Z,3.03
2018-08-25T06:29:58.138Z,2.83
2018-08-25T06:32:27.435Z,2.43
2018-08-25T06:34:56.923Z,3.17
2018-08-25T06:37:26.330Z,3.00
2018-08-25T06:39:56.497Z,3.20
2018-08-25T06:42:25.961Z,3.27
2018-08-25T06:44:55.351Z,2.97
2018-08-25T06:47:24.858Z,2.50
2018-08-25T06:49:57.009Z,3.03
2018-08-25T06:52:27.459Z,2.60
2018-08-25T06:54:57.500Z,2.80
2018-08-25T06:57:27.662Z,3.70
2018-08-25T06:59:57.795Z,3.17
2018-08-25T07:02:27.252Z,4.30
2018-08-25T07:04:56.772Z,2.90
2018-08-25T07:07:26.829Z,2.90
2018-08-25T07:09:56.446Z,2.63
2018-08-25T07:12:25.967Z,2.47
2018-08-25T07:14:56.800Z,3.10
2018-08-25T07:17:26.252Z,2.80
2018-08-25T07:19:56.637Z,3.07
2018-08-25T07:22:26.603Z,2.40
2018-08-25T07:24:56.499Z,3.17
2018-08-25T07:27:25.900Z,2.30
2018-08-25T07:29:55.417Z,2.40
2018-08-25T07:32:25.074Z,2.80
2018-08-25T07:34:54.901Z,2.53
2018-08-25T07:37:24.461Z,2.73
2018-08-25T07:39:54.205Z,2.13
2018-08-25T07:42:23.586Z,2.80
2018-08-25T07:44:53.001Z,3.40
2018-08-25T07:47:22.657Z,2.77
2018-08-25T07:49:51.974Z,2.83
2018-08-25T07:52:21.333Z,2.47
2018-08-25T07:54:50.930Z,2.60
2018-08-25T07:57:20.252Z,2.53
2018-08-25T07:59:50.505Z,3.00
2018-08-25T08:02:20.533Z,1.97
2018-08-25T08:04:51.348Z,3.00
2018-08-25T08:07:21.702Z,3.70
2018-08-25T08:09:51.754Z,2.80
2018-08-25T08:12:26.124Z,2.33
2018-08-25T08:14:55.951Z,2.17
2018-08-25T08:17:26.418Z,2.90
2018-08-25T08:19:55.883Z,2.20
2018-08-25T08:22:26.578Z,2.80
2018-08-25T08:24:56.337Z,2.67
2018-08-25T08:27:26.430Z,2.83
2018-08-25T08:29:55.921Z,2.20
2018-08-25T08:32:25.788Z,2.97
2018-08-25T08:34:55.793Z,2.63
2018-08-25T08:37:25.395Z,2.30
2018-08-25T08:39:54.929Z,2.87
2018-08-25T08:42:25.363Z,3.03
2018-08-25T08:44:55.111Z,2.60
2018-08-25T08:47:24.734Z,2.43
2018-08-25T08:49:55.781Z,2.93
2018-08-25T08:52:25.182Z,2.77
2018-08-25T08:54:54.918Z,4.00
2018-08-25T08:57:25.029Z,2.63
2018-08-25T08:59:54.980Z,2.30
2018-08-25T09:02:24.706Z,2.30
2018-08-25T09:04:54.641Z,2.60
2018-08-25T09:07:24.189Z,2.47
2018-08-25T09:09:53.850Z,2.30
2018-08-25T09:12:24.968Z,2.83
2018-08-25T09:14:54.790Z,2.97
2018-08-25T09:17:24.563Z,3.70
2018-08-25T09:19:55.158Z,3.30
2018-08-25T09:22:24.678Z,2.90
2018-08-25T09:24:54.097Z,3.73
2018-08-25T09:27:24.116Z,3.70
2018-08-25T09:29:53.978Z,3.60
2018-08-25T09:32:24.334Z,3.90
2018-08-25T09:34:55.447Z,3.30
2018-08-25T09:37:25.655Z,4.20
2018-08-25T09:39:56.115Z,3.03
2018-08-25T09:42:25.592Z,3.00
2018-08-25T09:44:55.403Z,3.83
2018-08-25T09:47:25.145Z,2.90
2018-08-25T09:49:55.748Z,3.03
2018-08-25T09:52:25.718Z,2.50
2018-08-25T09:54:55.401Z,3.70
2018-08-25T09:57:35.935Z,3.03
2018-08-25T10:00:12.322Z,2.50
2018-08-25T10:02:42.014Z,2.50
2018-08-25T10:05:11.443Z,3.20
2018-08-25T10:07:41.146Z,3.23
2018-08-25T10:10:13.573Z,2.60
2018-08-25T10:12:46.277Z,2.70
2018-08-25T10:15:20.861Z,2.33
2018-08-25T10:17:51.138Z,2.20
2018-08-25T10:20:21.210Z,3.63
2018-08-25T10:22:50.937Z,2.53
2018-08-25T10:25:22.740Z,2.53
2018-08-25T10:27:56.906Z,2.73
2018-08-25T10:30:27.357Z,3.50
2018-08-25T10:32:58.188Z,2.23
2018-08-25T10:35:27.790Z,1.90
2018-08-25T10:37:57.345Z,2.20
2018-08-25T10:40:27.262Z,2.90
2018-08-25T10:42:57.515Z,2.80
2018-08-25T10:45:27.293Z,3.90
2018-08-25T10:47:56.980Z,2.97
2018-08-25T10:50:26.502Z,3.03
2018-08-25T10:52:56.709Z,2.57
2018-08-25T10:58:18.790Z,3.10
2018-08-25T11:00:50.306Z,3.70
2018-08-25T11:03:19.948Z,3.67
2018-08-25T11:05:51.024Z,3.40
2018-08-25T11:08:20.614Z,3.33
2018-08-25T11:10:51.785Z,3.37
2018-08-25T11:13:21.403Z,3.53
2018-08-25T11:15:52.743Z,2.70
2018-08-25T11:18:22.434Z,2.50
2018-08-25T11:20:51.970Z,2.70
2018-08-25T11:23:21.565Z,3.60
2018-08-25T11:25:51.507Z,3.03
2018-08-25T11:28:22.765Z,2.90
2018-08-25T11:30:52.744Z,2.97
2018-08-25T11:33:22.454Z,3.00
2018-08-25T11:35:53.416Z,2.63
2018-08-25T11:38:23.032Z,2.67
2018-08-25T11:40:53.238Z,2.97
2018-08-25T11:43:22.907Z,2.90
2018-08-25T11:45:52.540Z,2.47
2018-08-25T11:48:22.025Z,2.93
2018-08-25T11:50:52.243Z,2.23
2018-08-25T11:53:21.836Z,3.40
2018-08-25T11:55:52.560Z,3.33
2018-08-25T11:58:22.098Z,2.87
2018-08-25T12:00:51.818Z,3.00
2018-08-25T12:03:21.335Z,3.30
2018-08-25T12:05:50.973Z,3.73
2018-08-25T12:08:20.675Z,3.00
2018-08-25T12:10:50.709Z,3.00
2018-08-25T12:13:20.518Z,3.23
2018-08-25T12:15:50.156Z,3.20
2018-08-25T12:18:19.681Z,3.40
2018-08-25T12:20:49.364Z,4.47
2018-08-25T12:23:19.617Z,4.07
2018-08-25T12:25:49.348Z,4.23
2018-08-25T12:28:19.978Z,5.47
2018-08-25T12:30:49.502Z,4.93
2018-08-25T12:33:19.629Z,5.17
2018-08-25T12:35:49.541Z,6.00
2018-08-25T12:38:19.442Z,6.40
2018-08-25T12:40:49.041Z,5.43
2018-08-25T12:43:18.879Z,4.90
2018-08-25T12:45:48.593Z,5.30
2018-08-25T12:48:18.822Z,5.97
2018-08-25T12:50:48.701Z,5.13
2018-08-25T12:53:19.642Z,5.00
2018-08-25T12:55:50.109Z,4.57
2018-08-25T12:58:19.874Z,4.50
2018-08-25T13:00:50.009Z,4.73
2018-08-25T13:03:19.993Z,4.27
2018-08-25T13:05:49.757Z,3.83
2018-08-25T13:08:19.905Z,4.30
2018-08-25T13:10:49.599Z,3.90
2018-08-25T13:13:19.389Z,4.00
2018-08-25T13:15:49.773Z,5.30
2018-08-25T13:18:19.749Z,5.47
2018-08-25T13:20:49.291Z,4.70
2018-08-25T13:23:19.101Z,4.13
2018-08-25T13:25:49.363Z,5.73
2018-08-25T13:28:19.122Z,5.80
2018-08-25T13:30:48.858Z,5.10
2018-08-25T13:33:19.235Z,4.90
2018-08-25T13:35:49.191Z,4.77
2018-08-25T13:38:19.226Z,4.00
2018-08-25T13:40:49.063Z,4.50
2018-08-25T13:43:19.493Z,3.23
2018-08-25T13:45:49.019Z,3.80
2018-08-25T13:48:18.996Z,3.27
2018-08-25T13:50:49.222Z,3.30
2018-08-25T13:53:19.177Z,2.80
2018-08-25T13:55:49.957Z,3.40
2018-08-25T13:58:21.888Z,2.40
2018-08-25T14:00:51.657Z,2.30
2018-08-25T14:03:21.265Z,3.03
2018-08-25T14:05:51.077Z,3.10
2018-08-25T14:08:20.761Z,3.03
2018-08-25T14:10:51.431Z,3.37
2018-08-25T14:13:21.122Z,3.77
2018-08-25T14:15:50.995Z,3.60
2018-08-25T14:18:20.681Z,3.80
2018-08-25T14:20:50.181Z,4.27
2018-08-25T14:23:20.482Z,5.10
2018-08-25T14:25:50.374Z,4.10
2018-08-25T14:28:20.593Z,4.73
2018-08-25T14:30:51.075Z,4.77
2018-08-25T14:33:20.888Z,4.53
2018-08-25T14:35:50.628Z,4.97
2018-08-25T14:38:20.267Z,4.33
2018-08-25T14:40:49.757Z,4.07
2018-08-25T14:43:19.627Z,4.10
2018-08-25T14:45:49.418Z,4.50
2018-08-25T14:48:19.103Z,3.80
2018-08-25T14:50:49.654Z,3.93
2018-08-25T14:53:19.195Z,4.67
2018-08-25T14:55:50.501Z,4.37
2018-08-25T14:58:20.594Z,3.37
2018-08-25T15:00:50.971Z,2.63
2018-08-25T15:03:20.775Z,2.57
2018-08-25T15:05:50.427Z,3.17
2018-08-25T15:08:20.627Z,3.20
2018-08-25T15:10:50.295Z,3.97
2018-08-25T15:13:19.622Z,3.13
2018-08-25T15:15:49.288Z,3.47
2018-08-25T15:18:18.899Z,3.20
2018-08-25T15:20:48.302Z,3.20
2018-08-25T15:23:17.889Z,4.40
2018-08-25T15:25:47.570Z,4.13
2018-08-25T15:28:17.363Z,4.53
2018-08-25T15:30:46.990Z,4.70
2018-08-25T15:33:17.468Z,4.10
2018-08-25T15:35:46.970Z,4.10
2018-08-25T15:38:16.577Z,4.60
2018-08-25T15:40:46.392Z,4.50
2018-08-25T15:43:16.055Z,5.00
2018-08-25T15:45:50.009Z,4.70
2018-08-25T15:48:19.888Z,3.83
2018-08-25T15:50:49.361Z,3.97
2018-08-25T15:53:19.710Z,4.47
2018-08-25T15:55:53.697Z,3.97
2018-08-25T15:58:23.481Z,2.97
2018-08-25T16:00:53.699Z,3.00
2018-08-25T16:03:23.324Z,3.03
2018-08-25T16:05:52.900Z,2.60
2018-08-25T16:08:22.657Z,2.30
2018-08-25T16:10:52.948Z,2.20
2018-08-25T16:13:24.757Z,1.97
2018-08-25T16:15:54.422Z,2.70
2018-08-25T16:18:24.127Z,1.87
2018-08-25T16:21:01.879Z,2.13
2018-08-25T16:23:32.448Z,2.33
2018-08-25T16:26:03.765Z,2.93
2018-08-25T16:28:33.057Z,2.80
2018-08-25T16:31:02.605Z,2.13
2018-08-25T16:33:32.139Z,2.30
2018-08-25T16:36:02.089Z,2.33
2018-08-25T16:38:32.067Z,2.10
2018-08-25T16:41:03.599Z,2.10
2018-08-25T16:43:34.504Z,1.90
2018-08-25T16:46:04.154Z,1.87
2018-08-25T16:48:35.450Z,1.50
2018-08-25T16:51:05.433Z,1.50
2018-08-25T16:53:34.882Z,1.30
2018-08-25T16:56:04.349Z,1.37
2018-08-25T16:58:34.162Z,1.20
2018-08-25T17:01:03.593Z,1.13
2018-08-25T17:03:32.953Z,0.77
2018-08-25T17:06:02.570Z,2.00
2018-08-25T17:08:31.981Z,0.90
2018-08-25T17:11:02.146Z,1.00
2018-08-25T17:13:32.278Z,0.70
2018-08-25T17:16:01.520Z,0.80
2018-08-25T17:18:30.925Z,0.90
2018-08-25T17:21:00.413Z,0.60
2018-08-25T17:23:29.729Z,0.80
2018-08-25T17:26:00.479Z,0.70
2018-08-25T17:28:31.370Z,1.00
2018-08-25T17:31:03.595Z,0.80
2018-08-25T17:33:35.084Z,0.60
2018-08-25T17:36:04.590Z,1.07
2018-08-25T17:38:34.578Z,1.03
2018-08-25T17:41:06.513Z,1.10
2018-08-25T17:46:41.271Z,1.17
2018-08-25T17:49:14.230Z,1.20
2018-08-25T17:51:46.594Z,1.40
2018-08-25T17:54:18.004Z,1.00
2018-08-25T17:56:48.458Z,1.20
2018-08-25T17:59:20.774Z,1.20
2018-08-25T18:01:52.313Z,1.40
2018-08-25T18:04:23.643Z,1.07
2018-08-25T18:09:35.141Z,1.27
2018-08-25T18:12:05.985Z,0.97
2018-08-25T18:14:42.389Z,2.00
2018-08-25T18:17:13.460Z,1.20
2018-08-25T18:19:54.994Z,0.90
2018-08-25T18:22:32.149Z,1.03
2018-08-25T18:25:27.302Z,1.80
2018-08-25T18:52:16.412Z,1.30
2018-08-25T18:54:47.899Z,1.40
2018-08-25T18:57:17.881Z,0.97
2018-08-25T18:59:47.614Z,1.00
2018-08-25T19:02:17.406Z,1.43
2018-08-25T19:04:47.235Z,1.40
2018-08-25T19:07:17.486Z,1.30
2018-08-25T19:09:47.226Z,2.13
2018-08-25T19:12:24.479Z,1.50
2018-08-25T19:14:56.418Z,1.13
2018-08-25T19:17:27.445Z,1.40
2018-08-25T19:19:56.954Z,1.30
2018-08-25T19:22:27.588Z,1.63
2018-08-25T19:24:57.391Z,1.40
2018-08-25T19:27:27.406Z,0.90
2018-08-25T19:29:57.026Z,1.03
2018-08-25T19:32:26.821Z,1.70
2018-08-25T19:34:56.679Z,1.63
2018-08-25T19:37:26.349Z,1.37
2018-08-25T19:39:58.402Z,1.87
2018-08-25T19:42:27.728Z,1.47
2018-08-25T19:44:57.344Z,1.60
2018-08-25T19:47:26.696Z,2.23
2018-08-25T19:49:56.337Z,2.53
2018-08-25T19:52:26.011Z,1.87
2018-08-25T19:54:58.117Z,1.90
2018-08-25T19:57:27.639Z,2.27
2018-08-25T19:59:58.450Z,1.93
2018-08-25T20:02:28.365Z,2.23
2018-08-25T20:04:58.270Z,2.30
2018-08-25T20:07:28.489Z,2.40
2018-08-25T20:09:57.897Z,1.70
2018-08-25T20:12:29.116Z,1.93
2018-08-25T20:15:08.309Z,2.33
2018-08-25T20:17:38.733Z,1.70
2018-08-25T20:20:08.402Z,1.90
2018-08-25T20:22:38.336Z,1.47
2018-08-25T20:25:11.433Z,2.23
2018-08-25T20:27:40.770Z,1.73
2018-08-25T20:30:10.215Z,1.67
2018-08-25T20:32:39.835Z,1.20
2018-08-25T20:35:09.920Z,1.93
2018-08-25T20:37:39.147Z,2.27
2018-08-25T20:40:08.777Z,1.77
2018-08-25T20:42:37.998Z,1.97
2018-08-25T20:45:08.319Z,1.80
2018-08-25T20:47:37.693Z,1.53
2018-08-25T20:50:07.529Z,1.67
2018-08-25T20:52:41.909Z,1.90
2018-08-25T20:55:13.360Z,2.50
2018-08-25T20:57:43.480Z,2.50
2018-08-25T21:00:12.760Z,1.70
2018-08-25T21:02:42.523Z,1.80
2018-08-25T21:05:11.865Z,1.83
2018-08-25T21:07:41.153Z,1.40
2018-08-25T21:10:10.781Z,1.23
2018-08-25T21:12:40.055Z,1.60
2018-08-25T21:15:09.371Z,2.10
2018-08-25T21:17:38.647Z,1.50
2018-08-25T21:20:08.016Z,1.10
2018-08-25T21:22:38.440Z,1.30
2018-08-25T21:25:08.058Z,1.20
2018-08-25T21:27:37.590Z,0.80
2018-08-25T21:30:12.420Z,1.00
2018-08-25T21:32:50.248Z,1.00
2018-08-25T21:35:21.638Z,0.90
2018-08-25T21:37:51.584Z,1.00
2018-08-25T21:40:22.269Z,1.17
2018-08-25T21:42:52.686Z,1.33
2018-08-25T21:45:22.100Z,1.00
2018-08-25T21:47:51.728Z,1.00
2018-08-25T21:50:25.209Z,1.10
2018-08-25T21:53:01.369Z,1.40
2018-08-25T21:58:11.394Z,1.40
2018-08-25T22:00:49.238Z,1.73
2018-08-25T22:03:27.343Z,1.37
2018-08-25T22:06:05.588Z,1.07
2018-08-25T22:08:36.822Z,1.13
2018-08-25T22:11:06.127Z,1.40
2018-08-25T22:13:36.617Z,1.27
2018-08-25T22:16:10.700Z,1.17
2018-08-25T22:18:42.392Z,2.20
2018-08-25T22:21:12.068Z,1.00
2018-08-25T22:23:44.632Z,1.60
2018-08-25T22:26:14.479Z,1.40
2018-08-25T22:28:44.108Z,1.47
2018-08-25T22:31:13.503Z,1.40
2018-08-25T22:33:42.812Z,1.30
2018-08-25T22:36:12.594Z,1.30
2018-08-25T22:38:43.098Z,1.43
2018-08-25T22:41:12.784Z,1.50
2018-08-25T22:43:42.649Z,1.20
2018-08-25T22:46:14.558Z,1.30
2018-08-25T22:48:46.009Z,1.40
2018-08-25T22:51:17.488Z,1.23
2018-08-25T22:53:47.466Z,1.27
2018-08-25T22:56:17.658Z,1.20
2018-08-25T22:58:47.258Z,1.30
2018-08-25T23:01:16.894Z,1.43
2018-08-25T23:03:46.452Z,1.47
2018-08-25T23:06:15.976Z,1.50
2018-08-25T23:08:46.880Z,1.50
2018-08-25T23:11:16.384Z,1.10
2018-08-25T23:13:45.939Z,2.53
2018-08-25T23:16:15.497Z,1.40
2018-08-25T23:18:44.871Z,2.20
2018-08-25T23:21:14.344Z,1.57
2018-08-25T23:23:43.586Z,1.40
2018-08-25T23:26:12.864Z,1.47
2018-08-25T23:28:42.287Z,1.50
2018-08-25T23:31:11.761Z,1.30
2018-08-25T23:33:41.021Z,1.10
2018-08-25T23:36:10.456Z,1.77
2018-08-25T23:38:40.250Z,1.17
2018-08-25T23:41:09.448Z,1.37
2018-08-25T23:43:39.070Z,1.97
2018-08-25T23:46:08.331Z,1.63
2018-08-25T23:48:37.697Z,1.30
2018-08-25T23:51:07.027Z,1.27
2018-08-25T23:53:36.431Z,1.57
2018-08-25T23:56:06.465Z,1.13
2018-08-25T23:58:35.826Z,1.20
